Time;durP1;ratioP1;P1;durP2;ratioP2;P2;SDS_P1;SDS_P2;PMS_P1;PMS_P2;Temp;Humidity;BMP_temperature;BMP_pressure;BME280_temperature;BME280_humidity;BME280_pressure;Samples;Min_cycle;Max_cycle;Signal;HPM_P1;HPM_P2
2023/10/18 00:02:16;;;;;;;1.55;1.13;;;;;;;;;;5010866;28;20074;-80
2023/10/18 00:04:46;;;;;;;2.53;1.35;;;;;;;;;;5010815;28;20054;-79
2023/10/18 00:07:15;;;;;;;1.40;1.30;;;;;;;;;;4998486;28;20084;-79
2023/10/18 00:09:51;;;;;;;2.35;1.25;;;;;;;;;;5008644;28;20019;-78
2023/10/18 00:12:18;;;;;;;1.10;1.00;;;;;;;;;;5005336;28;20039;-80
2023/10/18 00:14:45;;;;;;;0.93;0.80;;;;;;;;;;5003040;28;20462;-79
2023/10/18 00:17:12;;;;;;;0.93;0.85;;;;;;;;;;5000177;28;20026;-78
2023/10/18 00:19:39;;;;;;;0.80;0.70;;;;;;;;;;5002818;28;20031;-82
2023/10/18 00:22:07;;;;;;;0.82;0.68;;;;;;;;;;4989516;28;20027;-78
2023/10/18 00:24:33;;;;;;;1.15;0.98;;;;;;;;;;4982633;28;20029;-79
2023/10/18 00:26:59;;;;;;;7.22;1.25;;;;;;;;;;4979067;28;20019;-79
2023/10/18 00:29:25;;;;;;;1.42;1.15;;;;;;;;;;4979774;28;20093;-78
2023/10/18 00:31:51;;;;;;;0.90;0.80;;;;;;;;;;4979725;28;20078;-78
2023/10/18 00:34:18;;;;;;;1.08;0.90;;;;;;;;;;4979450;28;20058;-78
2023/10/18 00:36:45;;;;;;;1.08;0.85;;;;;;;;;;4979636;28;20023;-79
2023/10/18 00:39:32;;;;;;;1.02;0.90;;;;;;;;;;4980134;28;20436;-78
2023/10/18 00:42:24;;;;;;;1.23;0.98;;;;;;;;;;4981375;28;20027;-78
2023/10/18 00:44:54;;;;;;;1.17;1.00;;;;;;;;;;4981095;28;20033;-78
2023/10/18 00:47:21;;;;;;;2.08;1.02;;;;;;;;;;4979515;28;20025;-78
2023/10/18 00:49:52;;;;;;;1.55;1.17;;;;;;;;;;4980055;28;20391;-78
2023/10/18 00:52:19;;;;;;;1.33;0.88;;;;;;;;;;4980727;28;20379;-78
2023/10/18 00:54:45;;;;;;;2.10;1.10;;;;;;;;;;4982461;28;20058;-79
2023/10/18 00:57:12;;;;;;;0.50;0.50;;;;;;;;;;4982443;28;20058;-78
2023/10/18 00:59:38;;;;;;;1.08;0.93;;;;;;;;;;4981656;28;20034;-78
2023/10/18 01:02:11;;;;;;;1.33;0.90;;;;;;;;;;4978400;28;20365;-78
2023/10/18 01:04:40;;;;;;;1.08;0.85;;;;;;;;;;4989096;28;20050;-78
2023/10/18 01:07:16;;;;;;;0.98;0.85;;;;;;;;;;4980302;28;20030;-78
2023/10/18 01:09:44;;;;;;;1.48;1.30;;;;;;;;;;4980427;28;20018;-79
2023/10/18 01:12:11;;;;;;;0.95;0.88;;;;;;;;;;4980152;28;20030;-78
2023/10/18 01:14:37;;;;;;;0.70;0.70;;;;;;;;;;4979693;28;20030;-78
2023/10/18 01:17:06;;;;;;;2.20;0.90;;;;;;;;;;4980128;28;20037;-79
2023/10/18 01:19:32;;;;;;;1.27;0.90;;;;;;;;;;4980302;28;20034;-78
2023/10/18 01:21:58;;;;;;;0.90;0.80;;;;;;;;;;4981169;28;20030;-78
2023/10/18 01:24:28;;;;;;;0.90;0.70;;;;;;;;;;4980501;28;20088;-79
2023/10/18 01:26:54;;;;;;;0.80;0.80;;;;;;;;;;4981750;28;20019;-78
2023/10/18 01:29:22;;;;;;;1.23;0.90;;;;;;;;;;4980257;28;20030;-79
2023/10/18 01:31:49;;;;;;;1.77;0.95;;;;;;;;;;4980729;28;20450;-78
2023/10/18 01:34:15;;;;;;;1.98;0.80;;;;;;;;;;4998783;28;20072;-78
2023/10/18 01:36:41;;;;;;;0.70;0.70;;;;;;;;;;4980690;28;20023;-78
2023/10/18 01:39:18;;;;;;;0.95;0.75;;;;;;;;;;4980833;28;20030;-78
2023/10/18 01:41:45;;;;;;;0.95;0.77;;;;;;;;;;4998305;28;20463;-78
2023/10/18 01:44:18;;;;;;;1.38;1.00;;;;;;;;;;4980898;28;20023;-79
2023/10/18 01:46:52;;;;;;;0.85;0.70;;;;;;;;;;4982106;28;20026;-78
2023/10/18 01:49:24;;;;;;;0.70;0.70;;;;;;;;;;4981060;28;20035;-80
2023/10/18 01:51:51;;;;;;;1.95;1.50;;;;;;;;;;4981820;28;20033;-79
2023/10/18 01:54:18;;;;;;;1.17;0.88;;;;;;;;;;4981653;28;20036;-78
2023/10/18 01:56:47;;;;;;;1.00;0.80;;;;;;;;;;4980828;28;20482;-78
2023/10/18 01:59:17;;;;;;;0.80;0.70;;;;;;;;;;4981373;28;20093;-78
2023/10/18 02:01:44;;;;;;;1.08;0.80;;;;;;;;;;4981083;28;20053;-78
2023/10/18 02:04:13;;;;;;;0.70;0.70;;;;;;;;;;4980665;28;20070;-78
2023/10/18 02:06:42;;;;;;;2.17;0.80;;;;;;;;;;4982031;28;20073;-78
2023/10/18 02:09:10;;;;;;;1.13;0.90;;;;;;;;;;4981915;28;20474;-79
2023/10/18 02:11:36;;;;;;;1.63;1.13;;;;;;;;;;4982450;28;20022;-78
2023/10/18 02:14:03;;;;;;;0.60;0.60;;;;;;;;;;4983112;28;20036;-78
2023/10/18 02:16:31;;;;;;;0.85;0.85;;;;;;;;;;4984754;28;20026;-78
2023/10/18 02:18:58;;;;;;;0.75;0.70;;;;;;;;;;4983607;28;20042;-79
2023/10/18 02:21:25;;;;;;;1.45;0.98;;;;;;;;;;4986192;28;20474;-77
2023/10/18 02:23:52;;;;;;;1.35;0.90;;;;;;;;;;5006745;28;20113;-78
2023/10/18 02:26:39;;;;;;;1.08;0.82;;;;;;;;;;4984950;28;20026;-78
2023/10/18 02:29:11;;;;;;;0.85;0.80;;;;;;;;;;4984062;28;20493;-78
2023/10/18 02:31:38;;;;;;;0.82;0.75;;;;;;;;;;4983595;28;20463;-80
2023/10/18 02:34:05;;;;;;;0.85;0.75;;;;;;;;;;4982424;28;20471;-80
2023/10/18 02:36:38;;;;;;;0.63;0.63;;;;;;;;;;5000279;28;20022;-77
2023/10/18 02:39:06;;;;;;;0.98;0.70;;;;;;;;;;5001930;28;20026;-78
2023/10/18 02:41:34;;;;;;;1.10;0.90;;;;;;;;;;4984857;28;20046;-80
2023/10/18 02:44:00;;;;;;;0.70;0.70;;;;;;;;;;4987746;28;20034;-79
2023/10/18 02:46:27;;;;;;;1.00;0.80;;;;;;;;;;4987759;28;20537;-78
2023/10/18 02:48:57;;;;;;;1.23;1.13;;;;;;;;;;4988696;28;20037;-79
2023/10/18 02:51:24;;;;;;;1.02;0.82;;;;;;;;;;4991704;28;20018;-80
2023/10/18 02:54:07;;;;;;;1.00;0.80;;;;;;;;;;4994873;28;20026;-79
2023/10/18 02:56:37;;;;;;;1.42;1.13;;;;;;;;;;4987121;28;20058;-78
2023/10/18 02:59:06;;;;;;;1.33;0.98;;;;;;;;;;4986258;28;20117;-79
2023/10/18 03:01:40;;;;;;;1.98;1.00;;;;;;;;;;4986524;28;20057;-80
2023/10/18 03:04:09;;;;;;;1.20;0.80;;;;;;;;;;4984021;28;20402;-80
2023/10/18 03:06:35;;;;;;;1.33;1.13;;;;;;;;;;4982380;28;20045;-79
2023/10/18 03:09:03;;;;;;;1.55;0.90;;;;;;;;;;4983595;28;20027;-80
2023/10/18 03:11:32;;;;;;;1.40;0.88;;;;;;;;;;4982862;28;20070;-79
2023/10/18 03:14:01;;;;;;;0.95;0.80;;;;;;;;;;4982839;28;20027;-78
2023/10/18 03:19:09;;;;;;;0.90;0.80;;;;;;;;;;4984463;28;20062;-77
2023/10/18 03:21:36;;;;;;;0.93;0.80;;;;;;;;;;4984779;28;20078;-79
2023/10/18 03:24:03;;;;;;;1.23;0.98;;;;;;;;;;4983864;28;20030;-79
2023/10/18 03:26:35;;;;;;;0.60;0.60;;;;;;;;;;4983952;28;20027;-80
2023/10/18 03:29:05;;;;;;;1.10;0.75;;;;;;;;;;4982845;28;20033;-77
2023/10/18 03:31:36;;;;;;;1.00;0.90;;;;;;;;;;4986138;28;20027;-79
2023/10/18 03:34:02;;;;;;;1.08;0.90;;;;;;;;;;4987140;28;20034;-79
2023/10/18 03:36:32;;;;;;;0.93;0.80;;;;;;;;;;4982941;28;20031;-79
2023/10/18 03:39:12;;;;;;;2.75;1.00;;;;;;;;;;4980170;28;20026;-79
2023/10/18 03:41:42;;;;;;;0.50;0.50;;;;;;;;;;4978866;28;20031;-79
2023/10/18 03:44:08;;;;;;;1.45;0.98;;;;;;;;;;4979671;28;20023;-81
2023/10/18 03:46:38;;;;;;;1.58;1.05;;;;;;;;;;4978012;28;20031;-77
2023/10/18 03:49:10;;;;;;;0.93;0.73;;;;;;;;;;4978650;28;20022;-79
2023/10/18 03:51:39;;;;;;;1.10;0.85;;;;;;;;;;4979436;28;20025;-80
2023/10/18 03:54:08;;;;;;;0.70;0.70;;;;;;;;;;4978825;28;20471;-80
2023/10/18 03:56:37;;;;;;;0.98;0.80;;;;;;;;;;4979053;28;20386;-78
2023/10/18 03:59:20;;;;;;;0.80;0.73;;;;;;;;;;4979471;28;20026;-77
2023/10/18 04:02:06;;;;;;;1.00;0.90;;;;;;;;;;4979825;28;20042;-77
2023/10/18 04:04:35;;;;;;;2.25;1.35;;;;;;;;;;4979671;28;20278;-77
2023/10/18 04:07:16;;;;;;;0.95;0.85;;;;;;;;;;4980146;28;20019;-77
2023/10/18 04:10:26;;;;;;;1.20;1.00;;;;;;;;;;4979470;28;20026;-78
2023/10/18 04:12:33;;;;;;;0.60;0.60;;;;;;;;;;4975397;28;20035;-78
2023/10/18 04:14:59;;;;;;;0.93;0.80;;;;;;;;;;4979653;28;20054;-76
2023/10/18 04:20:07;;;;;;;0.70;0.70;;;;;;;;;;4980191;28;20077;-78
2023/10/18 04:22:33;;;;;;;0.82;0.80;;;;;;;;;;4981088;28;20042;-78
2023/10/18 04:25:01;;;;;;;1.50;1.30;;;;;;;;;;4981153;28;20173;-77
2023/10/18 04:27:27;;;;;;;1.05;0.95;;;;;;;;;;4980671;28;20037;-80
2023/10/18 04:29:56;;;;;;;0.90;0.80;;;;;;;;;;4980688;28;20034;-79
2023/10/18 04:32:23;;;;;;;0.98;0.80;;;;;;;;;;4981840;28;20031;-78
2023/10/18 04:34:49;;;;;;;0.70;0.70;;;;;;;;;;4982490;28;20475;-79
2023/10/18 04:37:17;;;;;;;0.90;0.80;;;;;;;;;;4985118;28;20027;-78
2023/10/18 04:39:43;;;;;;;1.10;0.90;;;;;;;;;;4982886;28;20022;-78
2023/10/18 04:42:16;;;;;;;0.95;0.80;;;;;;;;;;4979107;28;20031;-79
2023/10/18 04:44:47;;;;;;;0.85;0.82;;;;;;;;;;4979826;28;20019;-79
2023/10/18 04:47:17;;;;;;;1.33;1.00;;;;;;;;;;4980059;28;20503;-78
2023/10/18 04:50:04;;;;;;;0.70;0.70;;;;;;;;;;4979292;28;20027;-78
2023/10/18 04:52:40;;;;;;;0.60;0.60;;;;;;;;;;4979970;28;20034;-79
2023/10/18 04:55:11;;;;;;;1.48;1.30;;;;;;;;;;4980191;28;20030;-77
2023/10/18 04:57:38;;;;;;;1.38;0.98;;;;;;;;;;4980257;28;20038;-79
2023/10/18 05:02:58;;;;;;;0.88;0.73;;;;;;;;;;4964647;28;20031;-79
2023/10/18 05:05:28;;;;;;;0.80;0.75;;;;;;;;;;4979681;28;20050;-78
2023/10/18 05:07:54;;;;;;;0.88;0.70;;;;;;;;;;4979103;28;20023;-79
2023/10/18 05:10:21;;;;;;;0.73;0.70;;;;;;;;;;4981091;28;20027;-79
2023/10/18 05:12:53;;;;;;;1.23;1.13;;;;;;;;;;4979375;28;20030;-77
2023/10/18 05:15:42;;;;;;;1.70;1.30;;;;;;;;;;4979494;28;20030;-78
2023/10/18 05:18:17;;;;;;;2.83;1.77;;;;;;;;;;4980814;28;20027;-78
2023/10/18 05:20:47;;;;;;;1.60;1.17;;;;;;;;;;4983148;28;20034;-79
2023/10/18 05:23:23;;;;;;;1.25;1.00;;;;;;;;;;4984149;28;20031;-81
2023/10/18 05:26:08;;;;;;;2.13;1.45;;;;;;;;;;4988998;28;20406;-79
2023/10/18 05:28:47;;;;;;;1.80;1.17;;;;;;;;;;4981916;28;20545;-78
2023/10/18 05:34:06;;;;;;;2.45;1.52;;;;;;;;;;4981162;28;20173;-78
2023/10/18 05:36:36;;;;;;;3.03;1.35;;;;;;;;;;4980135;28;20050;-79
2023/10/18 05:39:19;;;;;;;4.35;1.33;;;;;;;;;;4981277;28;20106;-78
2023/10/18 05:41:46;;;;;;;0.98;0.88;;;;;;;;;;4983442;28;20019;-78
2023/10/18 05:44:13;;;;;;;2.00;0.85;;;;;;;;;;4983257;28;20038;-78
2023/10/18 05:46:39;;;;;;;1.60;1.10;;;;;;;;;;4981362;28;20494;-78
2023/10/18 05:49:15;;;;;;;0.60;0.60;;;;;;;;;;4981154;28;20030;-79
2023/10/18 05:51:52;;;;;;;1.60;0.90;;;;;;;;;;4979185;28;20027;-79
2023/10/18 05:54:19;;;;;;;0.52;0.52;;;;;;;;;;4979679;28;20022;-79
2023/10/18 05:56:53;;;;;;;1.30;1.20;;;;;;;;;;4978496;28;20029;-78
2023/10/18 06:01:46;;;;;;;0.77;0.77;;;;;;;;;;4979644;28;20035;-78
2023/10/18 06:04:13;;;;;;;1.90;1.25;;;;;;;;;;4977613;28;20097;-77
2023/10/18 06:06:40;;;;;;;1.00;0.80;;;;;;;;;;4978827;28;20026;-79
2023/10/18 06:09:10;;;;;;;2.25;1.02;;;;;;;;;;4978672;28;20113;-78
2023/10/18 06:11:37;;;;;;;0.60;0.60;;;;;;;;;;4979812;28;20118;-80
2023/10/18 06:14:16;;;;;;;1.65;0.95;;;;;;;;;;4977770;28;20023;-80
2023/10/18 06:16:42;;;;;;;1.00;0.90;;;;;;;;;;4981289;28;20118;-78
2023/10/18 06:19:13;;;;;;;1.00;0.80;;;;;;;;;;4981910;28;20023;-78
2023/10/18 06:21:57;;;;;;;1.65;1.17;;;;;;;;;;4983988;28;20070;-78
2023/10/18 06:24:25;;;;;;;0.50;0.50;;;;;;;;;;4983806;28;20039;-78
2023/10/18 06:26:54;;;;;;;1.10;0.93;;;;;;;;;;4983646;28;20095;-78
2023/10/18 06:29:23;;;;;;;0.55;0.55;;;;;;;;;;4984192;28;20027;-78
2023/10/18 06:31:50;;;;;;;1.00;0.90;;;;;;;;;;4983809;28;20099;-78
2023/10/18 06:34:22;;;;;;;1.73;1.33;;;;;;;;;;4983608;28;20114;-80
2023/10/18 06:36:49;;;;;;;0.73;0.67;;;;;;;;;;4984648;28;20077;-80
2023/10/18 06:39:35;;;;;;;0.90;0.90;;;;;;;;;;4984820;28;20027;-79
2023/10/18 06:42:06;;;;;;;1.10;1.00;;;;;;;;;;4987338;28;20045;-77
2023/10/18 06:44:33;;;;;;;0.82;0.80;;;;;;;;;;4986943;28;20027;-79
2023/10/18 06:47:01;;;;;;;0.90;0.90;;;;;;;;;;4986303;28;20047;-79
2023/10/18 06:49:27;;;;;;;1.05;0.90;;;;;;;;;;4987486;28;20385;-79
2023/10/18 06:51:54;;;;;;;0.95;0.85;;;;;;;;;;4990515;28;20089;-82
2023/10/18 06:54:32;;;;;;;0.93;0.82;;;;;;;;;;4987380;28;20054;-77
2023/10/18 06:57:15;;;;;;;0.82;0.75;;;;;;;;;;4986699;28;20023;-78
2023/10/18 06:59:41;;;;;;;;;;;;;;;;;;4986825;28;20034;-78
2023/10/18 07:02:08;;;;;;;0.93;0.85;;;;;;;;;;4986955;28;20301;-79
2023/10/18 07:04:46;;;;;;;2.03;0.95;;;;;;;;;;4986605;28;20062;-80
2023/10/18 07:07:20;;;;;;;1.77;0.88;;;;;;;;;;4990590;28;20031;-81
2023/10/18 07:09:49;;;;;;;2.15;1.42;;;;;;;;;;4994400;28;20030;-78
2023/10/18 07:12:19;;;;;;;5.68;1.98;;;;;;;;;;4990639;28;20031;-79
2023/10/18 07:14:46;;;;;;;0.60;0.60;;;;;;;;;;4989790;28;20022;-79
2023/10/18 07:17:14;;;;;;;1.45;1.20;;;;;;;;;;4982710;28;20090;-77
2023/10/18 07:19:49;;;;;;;0.70;0.70;;;;;;;;;;4983108;28;20023;-78
2023/10/18 07:22:27;;;;;;;2.78;1.30;;;;;;;;;;4984349;28;20053;-78
2023/10/18 07:24:59;;;;;;;1.10;1.00;;;;;;;;;;4981996;28;20023;-76
2023/10/18 07:27:29;;;;;;;0.75;0.75;;;;;;;;;;4981366;28;20023;-78
2023/10/18 07:30:00;;;;;;;0.98;0.88;;;;;;;;;;4981087;28;20054;-78
2023/10/18 07:32:28;;;;;;;1.13;0.90;;;;;;;;;;4980633;28;20031;-79
2023/10/18 07:34:57;;;;;;;1.40;1.17;;;;;;;;;;4985067;28;20477;-77
2023/10/18 07:39:56;;;;;;;1.10;0.88;;;;;;;;;;4983320;28;20026;-79
2023/10/18 07:42:22;;;;;;;;;;;;;;;;;;4985580;28;20041;-79
2023/10/18 07:44:55;;;;;;;1.15;0.82;;;;;;;;;;4983299;28;19929;-80
2023/10/18 07:47:25;;;;;;;0.98;0.75;;;;;;;;;;4983440;28;20027;-80
2023/10/18 07:49:55;;;;;;;4.38;1.13;;;;;;;;;;4984150;28;20050;-79
2023/10/18 07:52:21;;;;;;;0.60;0.60;;;;;;;;;;4982273;28;20030;-80
2023/10/18 07:54:48;;;;;;;1.00;0.88;;;;;;;;;;4992282;28;20046;-81
2023/10/18 07:57:17;;;;;;;0.63;0.63;;;;;;;;;;5012658;28;20023;-77
2023/10/18 07:59:47;;;;;;;1.20;0.90;;;;;;;;;;5008507;28;20022;-80
2023/10/18 08:02:14;;;;;;;1.00;0.90;;;;;;;;;;4998177;28;20023;-80
2023/10/18 08:04:44;;;;;;;1.27;1.15;;;;;;;;;;4998473;28;20050;-79
2023/10/18 08:07:15;;;;;;;0.70;0.70;;;;;;;;;;4998415;28;20060;-78
2023/10/18 08:09:44;;;;;;;1.45;1.35;;;;;;;;;;4998933;28;20023;-80
2023/10/18 08:12:30;;;;;;;1.52;0.77;;;;;;;;;;5001081;28;20023;-80
2023/10/18 08:14:56;;;;;;;1.25;1.15;;;;;;;;;;5004767;28;20034;-80
2023/10/18 08:17:29;;;;;;;0.95;0.88;;;;;;;;;;5001089;28;20019;-81
2023/10/18 08:23:34;;;;;;;1.33;1.10;;;;;;;;;;4975825;28;20471;-78
2023/10/18 08:26:04;;;;;;;0.73;0.70;;;;;;;;;;5001026;28;20032;-79
2023/10/18 08:28:40;;;;;;;0.55;0.55;;;;;;;;;;5002527;28;20030;-79
2023/10/18 08:31:15;;;;;;;0.90;0.80;;;;;;;;;;5000602;28;20081;-80
2023/10/18 08:33:41;;;;;;;0.80;0.70;;;;;;;;;;5000929;28;20080;-79
2023/10/18 08:36:13;;;;;;;3.13;1.10;;;;;;;;;;5003045;28;20053;-79
2023/10/18 08:38:41;;;;;;;1.10;0.80;;;;;;;;;;5003001;28;20023;-79
2023/10/18 08:41:15;;;;;;;4.78;1.15;;;;;;;;;;5000255;28;20398;-79
2023/10/18 08:44:05;;;;;;;1.10;0.90;;;;;;;;;;5001771;28;20027;-79
2023/10/18 08:46:36;;;;;;;1.00;0.90;;;;;;;;;;5000307;28;20018;-80
2023/10/18 08:49:03;;;;;;;1.17;1.08;;;;;;;;;;4998812;28;20097;-79
2023/10/18 08:51:29;;;;;;;1.20;0.90;;;;;;;;;;4978986;28;20034;-80
2023/10/18 08:53:58;;;;;;;0.90;0.80;;;;;;;;;;4994731;28;20027;-80
2023/10/18 08:56:33;;;;;;;1.05;0.80;;;;;;;;;;4972962;28;20483;-79
2023/10/18 08:59:00;;;;;;;0.82;0.77;;;;;;;;;;4983297;28;20028;-78
2023/10/18 09:01:26;;;;;;;1.60;1.05;;;;;;;;;;4960170;28;20038;-80
2023/10/18 09:03:55;;;;;;;1.10;0.90;;;;;;;;;;4977549;28;20066;-79
2023/10/18 09:06:22;;;;;;;1.02;0.88;;;;;;;;;;4969042;28;20030;-79
2023/10/18 09:11:48;;;;;;;0.95;0.80;;;;;;;;;;4919465;29;20515;-79
2023/10/18 09:14:15;;;;;;;0.80;0.65;;;;;;;;;;4914033;29;20031;-82
2023/10/18 09:16:42;;;;;;;0.93;0.80;;;;;;;;;;4920107;29;20028;-79
2023/10/18 09:19:11;;;;;;;1.05;0.75;;;;;;;;;;4905773;29;20032;-79
2023/10/18 09:24:23;;;;;;;0.93;0.70;;;;;;;;;;4923095;29;20072;-79
2023/10/18 09:26:49;;;;;;;1.45;1.05;;;;;;;;;;4908506;29;20136;-80
2023/10/18 09:29:17;;;;;;;1.10;0.80;;;;;;;;;;4917035;29;20116;-80
2023/10/18 09:31:52;;;;;;;0.80;0.73;;;;;;;;;;4917916;29;20032;-80
2023/10/18 09:34:19;;;;;;;0.80;0.70;;;;;;;;;;4921942;29;20040;-82
2023/10/18 09:36:54;;;;;;;0.93;0.80;;;;;;;;;;4910821;29;20051;-80
2023/10/18 09:39:37;;;;;;;1.38;0.93;;;;;;;;;;4920701;29;20115;-79
2023/10/18 09:42:04;;;;;;;1.20;0.80;;;;;;;;;;4915515;29;20048;-78
2023/10/18 09:44:30;;;;;;;1.00;0.73;;;;;;;;;;4921186;29;20412;-81
2023/10/18 09:46:59;;;;;;;1.70;1.15;;;;;;;;;;4924455;29;20047;-79
2023/10/18 09:49:28;;;;;;;1.20;0.95;;;;;;;;;;4973030;28;20487;-81
2023/10/18 09:51:54;;;;;;;0.90;0.77;;;;;;;;;;4961718;28;20022;-79
2023/10/18 09:54:22;;;;;;;1.15;0.88;;;;;;;;;;4972701;28;20376;-80
2023/10/18 09:56:48;;;;;;;1.83;1.08;;;;;;;;;;4969740;28;20023;-80
2023/10/18 09:59:26;;;;;;;1.48;0.90;;;;;;;;;;4963830;28;20118;-80
2023/10/18 10:02:00;;;;;;;1.55;1.10;;;;;;;;;;4963300;28;20510;-80
2023/10/18 10:04:32;;;;;;;1.40;0.95;;;;;;;;;;4983094;28;20058;-80
2023/10/18 10:09:46;;;;;;;0.85;0.75;;;;;;;;;;4977645;28;20041;-80
2023/10/18 10:12:14;;;;;;;1.30;0.73;;;;;;;;;;4966205;28;20025;-80
2023/10/18 10:14:41;;;;;;;1.02;0.80;;;;;;;;;;4968915;28;20024;-78
2023/10/18 10:17:18;;;;;;;1.13;0.93;;;;;;;;;;4974375;28;20179;-79
2023/10/18 10:19:53;;;;;;;1.08;0.90;;;;;;;;;;4965085;28;20030;-79
2023/10/18 10:22:24;;;;;;;1.10;1.00;;;;;;;;;;4961868;28;20019;-82
2023/10/18 10:24:59;;;;;;;1.23;0.93;;;;;;;;;;4962335;29;20050;-80
2023/10/18 10:30:20;;;;;;;0.80;0.80;;;;;;;;;;4969180;28;20094;-79
2023/10/18 10:32:46;;;;;;;2.03;1.45;;;;;;;;;;4978361;28;20030;-78
2023/10/18 10:35:27;;;;;;;1.10;0.90;;;;;;;;;;4963979;28;20028;-78
2023/10/18 10:37:54;;;;;;;1.38;0.82;;;;;;;;;;4979138;28;20026;-79
2023/10/18 10:43:08;;;;;;;0.80;0.70;;;;;;;;;;5001594;28;20146;-78
2023/10/18 10:48:30;;;;;;;1.70;1.25;;;;;;;;;;5002000;28;20026;-79
2023/10/18 10:51:08;;;;;;;1.25;1.05;;;;;;;;;;4989984;28;20015;-79
2023/10/18 10:53:48;;;;;;;1.08;0.90;;;;;;;;;;4959138;28;20473;-78
2023/10/18 10:56:18;;;;;;;0.70;0.60;;;;;;;;;;4957756;29;20035;-80
2023/10/18 10:58:54;;;;;;;1.20;0.90;;;;;;;;;;4958051;28;20030;-78
2023/10/18 11:01:31;;;;;;;1.27;0.90;;;;;;;;;;4958097;29;20027;-78
2023/10/18 11:03:59;;;;;;;0.93;0.70;;;;;;;;;;4960362;28;20059;-79
2023/10/18 11:06:32;;;;;;;0.80;0.70;;;;;;;;;;4961787;29;20090;-79
2023/10/18 11:08:58;;;;;;;0.85;0.70;;;;;;;;;;4962566;29;20030;-78
2023/10/18 11:11:29;;;;;;;0.90;0.75;;;;;;;;;;4961091;28;20061;-79
2023/10/18 11:13:56;;;;;;;1.35;0.88;;;;;;;;;;4965048;28;20023;-81
2023/10/18 11:16:22;;;;;;;1.40;0.80;;;;;;;;;;4960683;28;20031;-80
2023/10/18 11:18:49;;;;;;;1.00;0.80;;;;;;;;;;4961858;28;20364;-81
2023/10/18 11:21:19;;;;;;;0.88;0.80;;;;;;;;;;4964487;28;20042;-80
2023/10/18 11:23:57;;;;;;;1.00;0.82;;;;;;;;;;4962956;29;20121;-79
2023/10/18 11:26:24;;;;;;;0.60;0.60;;;;;;;;;;4963895;29;20034;-80
2023/10/18 11:28:55;;;;;;;0.85;0.70;;;;;;;;;;4964089;29;20019;-79
2023/10/18 11:31:22;;;;;;;1.00;0.80;;;;;;;;;;4965545;29;20023;-80
2023/10/18 11:33:57;;;;;;;0.70;0.70;;;;;;;;;;4964980;29;20031;-79
2023/10/18 11:36:27;;;;;;;0.80;0.80;;;;;;;;;;4963332;29;20042;-80
2023/10/18 11:41:38;;;;;;;1.05;0.95;;;;;;;;;;4969687;29;20527;-84
2023/10/18 11:44:17;;;;;;;1.40;1.00;;;;;;;;;;4968101;28;20039;-82
2023/10/18 11:46:47;;;;;;;0.73;0.73;;;;;;;;;;4965029;29;20081;-82
2023/10/18 11:49:14;;;;;;;0.70;0.70;;;;;;;;;;4965071;28;20384;-80
2023/10/18 11:51:44;;;;;;;0.98;0.70;;;;;;;;;;4963922;28;20024;-81
2023/10/18 11:54:12;;;;;;;0.60;0.60;;;;;;;;;;4963820;28;20028;-81
2023/10/18 11:56:41;;;;;;;0.63;0.63;;;;;;;;;;4962846;28;20023;-81
2023/10/18 11:59:07;;;;;;;0.70;0.70;;;;;;;;;;4963821;28;20078;-81
2023/10/18 12:01:33;;;;;;;0.60;0.60;;;;;;;;;;4963043;28;20073;-81
2023/10/18 12:04:00;;;;;;;0.70;0.70;;;;;;;;;;4962278;28;20452;-83
2023/10/18 12:06:27;;;;;;;0.60;0.60;;;;;;;;;;4964457;29;20027;-81
2023/10/18 12:11:38;;;;;;;0.55;0.55;;;;;;;;;;4964486;28;20065;-81
2023/10/18 12:14:04;;;;;;;1.50;1.00;;;;;;;;;;4962782;28;20031;-80
2023/10/18 12:16:33;;;;;;;0.50;0.50;;;;;;;;;;4962375;28;20027;-84
2023/10/18 12:19:00;;;;;;;0.70;0.70;;;;;;;;;;4962195;28;20023;-80
2023/10/18 12:21:29;;;;;;;0.63;0.63;;;;;;;;;;4962148;28;20391;-83
2023/10/18 12:24:00;;;;;;;0.60;0.60;;;;;;;;;;4971568;28;20091;-81
2023/10/18 12:26:27;;;;;;;0.60;0.60;;;;;;;;;;4970936;28;20188;-81
2023/10/18 12:29:05;;;;;;;0.55;0.55;;;;;;;;;;4972835;28;20023;-83
2023/10/18 12:31:39;;;;;;;0.77;0.77;;;;;;;;;;4972189;28;20032;-81
2023/10/18 12:34:05;;;;;;;0.75;0.75;;;;;;;;;;4972888;29;20373;-81
2023/10/18 12:36:38;;;;;;;0.60;0.60;;;;;;;;;;4972832;28;20104;-82
2023/10/18 12:39:10;;;;;;;0.50;0.50;;;;;;;;;;4972223;29;20119;-81
2023/10/18 12:41:39;;;;;;;0.52;0.52;;;;;;;;;;4974063;28;20031;-81
2023/10/18 12:44:17;;;;;;;0.60;0.60;;;;;;;;;;4966801;28;20035;-78
2023/10/18 12:46:43;;;;;;;0.50;0.50;;;;;;;;;;4996158;28;20098;-80
2023/10/18 12:49:11;;;;;;;0.63;0.63;;;;;;;;;;5001484;28;20034;-80
2023/10/18 12:51:42;;;;;;;0.73;0.73;;;;;;;;;;5003553;28;20040;-80
2023/10/18 12:54:19;;;;;;;1.33;1.08;;;;;;;;;;5013044;28;20026;-81
2023/10/18 12:57:08;;;;;;;0.50;0.50;;;;;;;;;;5013142;28;20053;-82
2023/10/18 13:03:22;;;;;;;0.50;0.50;;;;;;;;;;4953235;29;20063;-83
2023/10/18 13:05:40;;;;;;;0.50;0.50;;;;;;;;;;4945489;29;20107;-82
2023/10/18 13:08:17;;;;;;;0.52;0.52;;;;;;;;;;4935460;29;20020;-81
2023/10/18 13:10:48;;;;;;;0.63;0.63;;;;;;;;;;4938369;29;20083;-81
2023/10/18 13:13:18;;;;;;;0.73;0.73;;;;;;;;;;4940018;29;20039;-82
2023/10/18 13:15:47;;;;;;;0.70;0.70;;;;;;;;;;4939883;29;20028;-82
2023/10/18 13:18:14;;;;;;;0.50;0.50;;;;;;;;;;4942104;29;20034;-82
2023/10/18 13:20:48;;;;;;;0.47;0.47;;;;;;;;;;4943479;29;20023;-82
2023/10/18 13:23:18;;;;;;;0.47;0.47;;;;;;;;;;4944134;29;20039;-84
2023/10/18 13:25:54;;;;;;;0.50;0.50;;;;;;;;;;4939328;29;20036;-81
2023/10/18 13:28:59;;;;;;;0.65;0.65;;;;;;;;;;4939072;29;20028;-81
2023/10/18 13:31:18;;;;;;;0.95;0.95;;;;;;;;;;4944407;29;20095;-82
2023/10/18 13:33:45;;;;;;;0.70;0.70;;;;;;;;;;4986479;28;20045;-81
2023/10/18 13:36:13;;;;;;;0.70;0.70;;;;;;;;;;5012055;28;20034;-83
2023/10/18 13:38:40;;;;;;;0.70;0.70;;;;;;;;;;4991904;28;20111;-84
2023/10/18 13:41:19;;;;;;;0.70;0.70;;;;;;;;;;4985943;28;20031;-81
2023/10/18 13:43:48;;;;;;;0.43;0.43;;;;;;;;;;4952777;28;20047;-82
2023/10/18 13:46:22;;;;;;;0.50;0.50;;;;;;;;;;4972140;28;20027;-82
2023/10/18 13:48:52;;;;;;;0.50;0.50;;;;;;;;;;4972794;28;20031;-82
2023/10/18 13:51:21;;;;;;;0.50;0.50;;;;;;;;;;4973789;28;20027;-83
2023/10/18 13:53:48;;;;;;;0.63;0.63;;;;;;;;;;4972951;28;20043;-82
2023/10/18 13:56:15;;;;;;;0.85;0.70;;;;;;;;;;4972780;28;20027;-82
2023/10/18 13:58:41;;;;;;;0.60;0.60;;;;;;;;;;4972669;28;20054;-83
2023/10/18 14:01:17;;;;;;;0.73;0.73;;;;;;;;;;4972403;28;20038;-82
2023/10/18 14:03:49;;;;;;;0.43;0.43;;;;;;;;;;4970569;28;20046;-83
2023/10/18 14:06:15;;;;;;;0.50;0.50;;;;;;;;;;4964982;28;20134;-80
2023/10/18 14:08:45;;;;;;;0.70;0.70;;;;;;;;;;4965260;28;20082;-81
2023/10/18 14:11:17;;;;;;;0.50;0.50;;;;;;;;;;4999796;28;20050;-79
2023/10/18 14:13:47;;;;;;;0.60;0.60;;;;;;;;;;5000522;28;20022;-79
2023/10/18 14:16:16;;;;;;;0.60;0.60;;;;;;;;;;4998146;28;20026;-80
2023/10/18 14:18:43;;;;;;;0.70;0.70;;;;;;;;;;4999869;28;20029;-80
2023/10/18 14:21:12;;;;;;;0.68;0.68;;;;;;;;;;5005448;28;20038;-83
2023/10/18 14:23:43;;;;;;;0.82;0.82;;;;;;;;;;5010744;28;20032;-83
2023/10/18 14:26:09;;;;;;;0.50;0.50;;;;;;;;;;5004677;28;20038;-81
2023/10/18 14:28:41;;;;;;;1.40;1.17;;;;;;;;;;5000927;28;20034;-81
2023/10/18 14:31:13;;;;;;;1.15;1.05;;;;;;;;;;5002290;28;20512;-82
2023/10/18 14:33:40;;;;;;;0.60;0.60;;;;;;;;;;4999458;28;20034;-80
2023/10/18 14:36:09;;;;;;;0.50;0.50;;;;;;;;;;4999612;28;20030;-81
2023/10/18 14:38:35;;;;;;;0.60;0.60;;;;;;;;;;5004549;28;20392;-79
2023/10/18 14:41:03;;;;;;;0.50;0.50;;;;;;;;;;5002493;28;20027;-79
2023/10/18 14:43:30;;;;;;;1.02;0.85;;;;;;;;;;5001905;28;20110;-81
2023/10/18 14:45:59;;;;;;;0.70;0.70;;;;;;;;;;5002551;28;20023;-81
2023/10/18 14:48:26;;;;;;;0.70;0.70;;;;;;;;;;5004193;28;20093;-80
2023/10/18 14:50:52;;;;;;;0.75;0.73;;;;;;;;;;5002695;28;20126;-80
2023/10/18 14:53:18;;;;;;;0.50;0.50;;;;;;;;;;5004016;28;20030;-80
2023/10/18 14:55:44;;;;;;;0.68;0.68;;;;;;;;;;5003638;28;20023;-79
2023/10/18 14:58:11;;;;;;;0.60;0.60;;;;;;;;;;5005355;28;20034;-80
2023/10/18 15:00:39;;;;;;;0.55;0.55;;;;;;;;;;5005466;28;20413;-80
2023/10/18 15:03:11;;;;;;;0.93;0.73;;;;;;;;;;5004180;28;20026;-79
2023/10/18 15:05:37;;;;;;;;;;;;;;;;;;5003392;28;20054;-81
2023/10/18 15:08:05;;;;;;;0.90;0.70;;;;;;;;;;5005370;28;19929;-80
2023/10/18 15:10:31;;;;;;;1.27;1.17;;;;;;;;;;5007865;28;20071;-79
2023/10/18 15:12:59;;;;;;;2.95;1.45;;;;;;;;;;5004701;28;20030;-80
2023/10/18 15:15:27;;;;;;;0.70;0.70;;;;;;;;;;5003379;28;20113;-80
2023/10/18 15:17:58;;;;;;;1.13;0.80;;;;;;;;;;4999719;28;20041;-79
2023/10/18 15:20:26;;;;;;;0.80;0.80;;;;;;;;;;5003046;28;20060;-79
2023/10/18 15:22:55;;;;;;;0.93;0.80;;;;;;;;;;5001827;28;20085;-81
2023/10/18 15:25:21;;;;;;;0.60;0.60;;;;;;;;;;5005607;28;20525;-77
2023/10/18 15:27:48;;;;;;;1.00;0.90;;;;;;;;;;5004268;28;20053;-78
2023/10/18 15:30:17;;;;;;;0.73;0.70;;;;;;;;;;5004061;28;20054;-79
2023/10/18 15:32:45;;;;;;;0.70;0.70;;;;;;;;;;5003414;28;20490;-80
2023/10/18 15:35:13;;;;;;;1.13;0.80;;;;;;;;;;5000186;28;20018;-82
2023/10/18 15:37:42;;;;;;;0.60;0.60;;;;;;;;;;4999064;28;20029;-78
2023/10/18 15:40:15;;;;;;;0.70;0.70;;;;;;;;;;4998833;28;20028;-80
2023/10/18 15:42:42;;;;;;;1.23;0.90;;;;;;;;;;5001549;28;20097;-81
2023/10/18 15:45:12;;;;;;;0.77;0.52;;;;;;;;;;5003137;28;20026;-81
2023/10/18 15:47:41;;;;;;;0.98;0.80;;;;;;;;;;5003798;28;20089;-81